Flight Track Log - Related Links

Times and Time Zones

All times are in EDT time to prevent confusion due to time zone crossing. See the CSN6701 flight status page for this flight to view local times or setup timezone preferences in your user account.


Time Position Orientation Groundspeed Altitude Reporting Facility
EDT Latitude Longitude Course Direction KTS MPH feet Rate Location/Type
Mon 10:12:00 PM 22.7204 113.8989 45° Northeast  Level Estimated
Mon 10:13:00 PM 22.8012 113.9855 45° Northeast  Level Estimated
Mon 10:14:00 PM 22.8820 114.0722 45° Northeast  Level Estimated
Mon 10:15:00 PM 22.9628 114.1590 45° Northeast  Level Estimated
Mon 10:16:00 PM 23.0435 114.2459 45° Northeast  Level Estimated
Mon 10:17:00 PM 23.1242 114.3329 45° Northeast  Level Estimated
Mon 10:18:00 PM 23.2048 114.4200 45° Northeast  Level Estimated
Mon 10:19:00 PM 23.2845 114.5063 45° Northeast  Level Estimated
Mon 10:20:00 PM 23.3642 114.5927 45° Northeast  Level Estimated
Mon 10:21:00 PM 23.4438 114.6792 45° Northeast  Level Estimated
Mon 10:22:00 PM 23.5234 114.7658 45° Northeast  Level Estimated
Mon 10:23:00 PM 23.6029 114.8525 45° Northeast  Level Estimated
Mon 10:24:00 PM 23.6824 114.9394 45° Northeast  Level Estimated
Mon 10:25:00 PM 23.7618 115.0263 45° Northeast  Level Estimated
Mon 10:26:00 PM 23.8412 115.1133 45° Northeast  Level Estimated
Mon 10:27:00 PM 23.9205 115.2004 45° Northeast  Level Estimated
Mon 10:28:00 PM 23.9998 115.2877 45° Northeast  Level Estimated
Mon 10:29:00 PM 24.0790 115.3750 45° Northeast  Level Estimated
Mon 10:30:00 PM 24.1582 115.4625 45° Northeast  Level Estimated
Mon 10:31:00 PM 24.2373 115.5500 45° Northeast  Level Estimated
Mon 10:32:00 PM 24.3164 115.6377 45° Northeast  Level Estimated
Mon 10:33:00 PM 24.3954 115.7255 45° Northeast  Level Estimated
Mon 10:34:00 PM 24.4744 115.8134 45° Northeast  Level Estimated
Mon 10:35:00 PM 24.5533 115.9014 45° Northeast  Level Estimated
Mon 10:36:00 PM 24.6322 115.9895 45° Northeast  Level Estimated
Mon 10:37:00 PM 24.7110 116.0777 45° Northeast  Level Estimated
Mon 10:38:00 PM 24.7898 116.1661 46° Northeast  Level Estimated
Mon 10:39:00 PM 24.8685 116.2545 46° Northeast  Level Estimated
Mon 10:40:00 PM 24.9472 116.3431 46° Northeast  Level Estimated
Mon 10:41:00 PM 25.0258 116.4317 46° Northeast  Level Estimated
Mon 10:42:00 PM 25.1044 116.5205 46° Northeast  Level Estimated
Mon 10:43:00 PM 25.1829 116.6094 46° Northeast  Level Estimated
Mon 10:44:00 PM 25.2614 116.6984 46° Northeast  Level Estimated
Mon 10:45:00 PM 25.3398 116.7876 46° Northeast  Level Estimated
Mon 10:46:00 PM 25.4181 116.8768 46° Northeast  Level Estimated
Mon 10:47:00 PM 25.4964 116.9662 46° Northeast  Level Estimated
Mon 10:48:00 PM 25.5747 117.0557 46° Northeast  Level Estimated
Mon 10:49:00 PM 25.6528 117.1453 46° Northeast  Level Estimated
Mon 10:50:00 PM 25.7310 117.2350 46° Northeast  Level Estimated
Mon 10:51:00 PM 25.8091 117.3248 46° Northeast  Level Estimated
Mon 10:52:00 PM 25.8871 117.4148 46° Northeast  Level Estimated
Mon 10:53:00 PM 25.9650 117.5048 46° Northeast  Level Estimated
Mon 10:54:00 PM 26.0430 117.5950 46° Northeast  Level Estimated
Mon 10:55:00 PM 26.1208 117.6853 46° Northeast  Level Estimated
Mon 10:56:00 PM 26.1986 117.7758 46° Northeast  Level Estimated
Mon 10:57:00 PM 26.2764 117.8663 46° Northeast  Level Estimated
Mon 10:58:00 PM 26.3541 117.9570 46° Northeast  Level Estimated
Mon 10:59:00 PM 26.4317 118.0478 46° Northeast  Level Estimated
Mon 11:00:00 PM 26.5093 118.1387 46° Northeast  Level Estimated
Mon 11:01:00 PM 26.5868 118.2297 46° Northeast  Level Estimated
Mon 11:02:00 PM 26.6642 118.3209 46° Northeast  Level Estimated
Mon 11:03:00 PM 26.7416 118.4122 46° Northeast  Level Estimated
Mon 11:04:00 PM 26.8190 118.5036 47° Northeast  Level Estimated
Mon 11:05:00 PM 26.8962 118.5951 47° Northeast  Level Estimated
Mon 11:06:00 PM 26.9735 118.6868 47° Northeast  Level Estimated
Mon 11:07:00 PM 27.0506 118.7786 47° Northeast  Level Estimated
Mon 11:08:00 PM 27.1277 118.8705 47° Northeast  Level Estimated
Mon 11:09:00 PM 27.2048 118.9625 47° Northeast  Level Estimated
Mon 11:10:00 PM 27.2818 119.0547 47° Northeast  Level Estimated
Mon 11:11:00 PM 27.3587 119.1470 47° Northeast  Level Estimated
Mon 11:12:00 PM 27.4356 119.2394 47° Northeast  Level Estimated
Mon 11:13:00 PM 27.5124 119.3319 47° Northeast  Level Estimated
Mon 11:14:00 PM 27.5891 119.4246 47° Northeast  Level Estimated
Mon 11:15:00 PM 27.6658 119.5174 47° Northeast  Level Estimated
Mon 11:16:00 PM 27.7424 119.6104 47° Northeast  Level Estimated
Mon 11:17:00 PM 27.8189 119.7034 47° Northeast  Level Estimated
Mon 11:18:00 PM 27.8954 119.7967 47° Northeast  Level Estimated
Mon 11:19:00 PM 27.9718 119.8900 47° Northeast  Level Estimated
Mon 11:20:00 PM 28.0482 119.9835 47° Northeast  Level Estimated
Mon 11:21:00 PM 28.1245 120.0770 47° Northeast  Level Estimated
Mon 11:22:00 PM 28.2008 120.1708 47° Northeast  Level Estimated
Mon 11:23:00 PM 28.2769 120.2646 47° Northeast  Level Estimated
Mon 11:24:00 PM 28.3530 120.3586 47° Northeast  Level Estimated
Mon 11:25:00 PM 28.4291 120.4528 47° Northeast  Level Estimated
Mon 11:26:00 PM 28.5051 120.5471 47° Northeast  Level Estimated
Mon 11:27:00 PM 28.5810 120.6414 48° Northeast  Level Estimated
Mon 11:28:00 PM 28.6568 120.7360 48° Northeast  Level Estimated
Mon 11:29:00 PM 28.7326 120.8307 48° Northeast  Level Estimated
Mon 11:30:00 PM 28.8083 120.9255 48° Northeast  Level Estimated
Mon 11:31:00 PM 28.8840 121.0204 48° Northeast  Level Estimated
Mon 11:32:00 PM 28.9596 121.1155 48° Northeast  Level Estimated
Mon 11:33:00 PM 29.0351 121.2108 48° Northeast  Level Estimated
Mon 11:34:00 PM 29.1105 121.3061 48° Northeast  Level Estimated
Mon 11:35:00 PM 29.1859 121.4016 48° Northeast  Level Estimated
Mon 11:36:00 PM 29.2612 121.4973 48° Northeast  Level Estimated
Mon 11:37:00 PM 29.3365 121.5931 48° Northeast  Level Estimated
Mon 11:38:00 PM 29.4117 121.6890 48° Northeast  Level Estimated
Mon 11:39:00 PM 29.4868 121.7851 48° Northeast  Level Estimated
Mon 11:40:00 PM 29.5618 121.8813 48° Northeast  Level Estimated
Mon 11:41:00 PM 29.6368 121.9777 48° Northeast  Level Estimated
Mon 11:42:00 PM 29.7117 122.0742 48° Northeast  Level Estimated
Mon 11:43:00 PM 29.7865 122.1708 48° Northeast  Level Estimated
Mon 11:44:00 PM 29.8613 122.2676 48° Northeast  Level Estimated
Mon 11:45:00 PM 29.9342 122.3622 48° Northeast  Level Estimated
Mon 11:46:00 PM 29.9342 122.3622 North  Level Estimated
Mon 11:47:00 PM 29.9342 122.3622 North  Level Estimated
Mon 11:48:00 PM 29.9342 122.3622 North  Level Estimated
Mon 11:49:00 PM 29.9342 122.3622 North  Level Estimated
Mon 11:50:00 PM 29.9342 122.3622 North  Level Estimated
Mon 11:51:00 PM 29.9342 122.3622 North  Level Estimated
Mon 11:52:00 PM 29.9342 122.3622 North  Level Estimated
Mon 11:53:00 PM 29.9342 122.3622 North  Level Estimated
Mon 11:54:00 PM 29.9342 122.3622 North  Level Estimated
Mon 11:55:00 PM 29.9342 122.3622 North  Level Estimated
Mon 11:56:00 PM 29.9342 122.3622 North  Level Estimated
Mon 11:57:00 PM 29.9342 122.3622 North  Level Estimated
Mon 11:58:00 PM 29.9342 122.3622 North  Level Estimated
Mon 11:59:00 PM 29.9342 122.3622 North  Level Estimated
Tue 12:00:00 AM 29.9342 122.3622 North  Level Estimated
Tue 12:01:00 AM 29.9342 122.3622 North  Level Estimated
Tue 12:02:00 AM 29.9342 122.3622 North  Level Estimated

Login

Don't have an account? Register now (free) for customized features, flight alerts, and more!